createdAt,value
2023-06-25T00:02:28.189Z,2.40
2023-06-25T00:04:56.185Z,2.78
2023-06-25T00:07:24.338Z,2.45
2023-06-25T00:09:56.364Z,2.60
2023-06-25T00:12:24.590Z,2.42
2023-06-25T00:14:52.650Z,2.40
2023-06-25T00:17:22.806Z,2.15
2023-06-25T00:19:52.308Z,2.53
2023-06-25T00:22:20.326Z,2.30
2023-06-25T00:24:48.305Z,2.28
2023-06-25T00:27:16.249Z,2.30
2023-06-25T00:29:44.333Z,2.17
2023-06-25T00:32:13.487Z,2.78
2023-06-25T00:34:43.146Z,2.38
2023-06-25T00:37:18.453Z,2.60
2023-06-25T00:39:47.013Z,2.38
2023-06-25T00:42:16.321Z,2.60
2023-06-25T00:44:45.225Z,2.13
2023-06-25T00:47:15.555Z,2.30
2023-06-25T00:49:45.127Z,2.83
2023-06-25T00:52:16.222Z,2.53
2023-06-25T00:54:45.641Z,2.58
2023-06-25T00:57:16.850Z,2.28
2023-06-25T00:59:46.625Z,2.25
2023-06-25T01:02:23.416Z,2.60
2023-06-25T01:05:10.269Z,2.28
2023-06-25T01:07:40.162Z,2.30
2023-06-25T01:10:09.571Z,2.08
2023-06-25T01:12:37.691Z,2.40
2023-06-25T01:15:07.020Z,2.45
2023-06-25T01:17:37.181Z,2.17
2023-06-25T01:20:07.851Z,2.20
2023-06-25T01:22:37.245Z,2.30
2023-06-25T01:25:05.934Z,2.30
2023-06-25T01:27:35.774Z,2.20
2023-06-25T01:30:04.720Z,1.80
2023-06-25T01:32:32.904Z,1.80
2023-06-25T01:35:01.000Z,1.70
2023-06-25T01:37:32.114Z,2.05
2023-06-25T01:40:03.197Z,2.10
2023-06-25T01:42:31.962Z,2.40
2023-06-25T01:45:00.172Z,2.10
2023-06-25T01:47:28.375Z,2.17
2023-06-25T01:49:56.476Z,2.30
2023-06-25T01:52:24.532Z,1.92
2023-06-25T01:54:52.946Z,2.03
2023-06-25T01:57:22.427Z,2.17
2023-06-25T01:59:50.479Z,2.08
2023-06-25T02:02:19.677Z,2.33
2023-06-25T02:04:47.727Z,1.90
2023-06-25T02:07:15.956Z,2.17
2023-06-25T02:09:44.612Z,2.70
2023-06-25T02:12:12.715Z,2.00
2023-06-25T02:14:42.190Z,2.13
2023-06-25T02:17:10.266Z,2.42
2023-06-25T02:19:38.289Z,2.03
2023-06-25T02:22:06.787Z,2.45
2023-06-25T02:24:34.892Z,2.15
2023-06-25T02:27:02.976Z,2.50
2023-06-25T02:29:30.971Z,2.80
2023-06-25T02:32:00.358Z,2.65
2023-06-25T02:34:28.367Z,2.60
2023-06-25T02:36:56.365Z,2.90
2023-06-25T02:39:24.620Z,2.67
2023-06-25T02:41:52.848Z,2.38
2023-06-25T02:44:20.940Z,2.40
2023-06-25T02:46:48.967Z,2.30
2023-06-25T02:49:18.470Z,2.60
2023-06-25T02:51:46.849Z,2.35
2023-06-25T02:54:14.950Z,2.20
2023-06-25T02:56:43.358Z,2.17
2023-06-25T02:59:11.409Z,2.47
2023-06-25T03:01:39.885Z,2.22
2023-06-25T03:04:07.939Z,2.78
2023-06-25T03:06:37.842Z,2.60
2023-06-25T03:09:06.106Z,2.40
2023-06-25T03:11:35.149Z,2.40
2023-06-25T03:14:03.388Z,2.25
2023-06-25T03:16:32.379Z,2.78
2023-06-25T03:19:00.858Z,2.28
2023-06-25T03:21:29.169Z,2.42
2023-06-25T03:23:59.129Z,2.42
2023-06-25T03:26:27.350Z,2.38
2023-06-25T03:28:57.333Z,2.35
2023-06-25T03:31:25.527Z,2.33
2023-06-25T03:33:57.404Z,1.92
2023-06-25T03:36:25.678Z,2.00
2023-06-25T03:38:53.943Z,2.03
2023-06-25T03:41:23.302Z,1.88
2023-06-25T03:43:51.664Z,2.05
2023-06-25T03:46:19.784Z,2.22
2023-06-25T03:48:49.479Z,2.00
2023-06-25T03:51:17.706Z,2.30
2023-06-25T03:53:48.336Z,2.05
2023-06-25T03:56:16.470Z,2.28
2023-06-25T03:58:45.964Z,1.85
2023-06-25T04:01:14.046Z,2.00
2023-06-25T04:03:42.630Z,2.25
2023-06-25T04:06:10.668Z,2.08
2023-06-25T04:08:41.420Z,2.17
2023-06-25T04:11:10.176Z,2.22
2023-06-25T04:13:38.665Z,2.08
2023-06-25T04:16:10.405Z,2.22
2023-06-25T04:18:42.951Z,2.15
2023-06-25T04:21:11.016Z,2.47
2023-06-25T04:23:39.198Z,2.15
2023-06-25T04:26:07.592Z,2.15
2023-06-25T04:28:35.693Z,2.47
2023-06-25T04:31:04.211Z,2.20
2023-06-25T04:33:34.415Z,2.08
2023-06-25T04:36:02.623Z,2.40
2023-06-25T04:38:30.912Z,2.20
2023-06-25T04:40:58.930Z,2.53
2023-06-25T04:43:27.482Z,2.60
2023-06-25T04:45:58.286Z,1.80
2023-06-25T04:48:26.593Z,2.40
2023-06-25T04:50:56.023Z,2.30
2023-06-25T04:53:24.042Z,2.45
2023-06-25T04:55:52.120Z,2.50
2023-06-25T04:58:20.112Z,2.55
2023-06-25T05:00:48.277Z,2.50
2023-06-25T05:03:16.344Z,2.42
2023-06-25T05:05:44.333Z,2.70
2023-06-25T05:08:13.763Z,2.47
2023-06-25T05:10:43.993Z,2.40
2023-06-25T05:13:12.249Z,3.10
2023-06-25T05:15:42.316Z,3.40
2023-06-25T05:18:11.041Z,2.80
2023-06-25T05:20:39.644Z,2.75
2023-06-25T05:23:08.951Z,3.00
2023-06-25T05:25:38.932Z,3.00
2023-06-25T05:28:07.488Z,3.50
2023-06-25T05:30:36.101Z,3.03
2023-06-25T05:33:04.330Z,3.35
2023-06-25T05:35:32.629Z,3.58
2023-06-25T05:38:00.855Z,3.38
2023-06-25T05:40:30.121Z,3.17
2023-06-25T05:42:59.423Z,3.78
2023-06-25T05:45:27.676Z,3.80
2023-06-25T05:47:55.856Z,3.58
2023-06-25T05:50:24.204Z,3.45
2023-06-25T05:52:52.166Z,3.97
2023-06-25T05:55:20.382Z,3.25
2023-06-25T05:57:48.366Z,3.50
2023-06-25T06:00:18.764Z,3.38
2023-06-25T06:02:46.862Z,4.60
2023-06-25T06:05:15.019Z,3.45
2023-06-25T06:07:43.147Z,3.78
2023-06-25T06:10:12.058Z,3.40
2023-06-25T06:12:40.100Z,4.20
2023-06-25T06:15:09.207Z,3.78
2023-06-25T06:17:38.615Z,3.88
2023-06-25T06:20:07.697Z,4.32
2023-06-25T06:22:35.819Z,4.45
2023-06-25T06:25:03.914Z,4.40
2023-06-25T06:27:31.972Z,3.67
2023-06-25T06:30:01.292Z,3.40
2023-06-25T06:32:29.284Z,3.53
2023-06-25T06:34:58.704Z,3.40
2023-06-25T06:37:26.751Z,3.35
2023-06-25T06:39:54.857Z,3.20
2023-06-25T06:42:22.951Z,2.70
2023-06-25T06:44:51.170Z,3.58
2023-06-25T06:47:19.398Z,3.05
2023-06-25T06:49:47.553Z,3.40
2023-06-25T06:52:17.026Z,3.30
2023-06-25T06:54:45.030Z,3.20
2023-06-25T06:57:13.030Z,3.42
2023-06-25T06:59:41.175Z,3.35
2023-06-25T07:02:09.362Z,3.33
2023-06-25T07:04:37.686Z,2.90
2023-06-25T07:07:06.579Z,3.15
2023-06-25T07:09:37.559Z,3.97
2023-06-25T07:12:06.483Z,3.70
2023-06-25T07:14:34.410Z,3.45
2023-06-25T07:17:02.481Z,4.10
2023-06-25T07:19:30.546Z,3.90
2023-06-25T07:21:58.557Z,3.45
2023-06-25T07:24:26.599Z,3.47
2023-06-25T07:26:55.990Z,4.13
2023-06-25T07:29:24.005Z,6.20
2023-06-25T07:31:52.120Z,11.45
2023-06-25T07:34:20.240Z,5.70
2023-06-25T07:36:48.254Z,4.82
2023-06-25T07:39:26.834Z,4.75
2023-06-25T07:41:56.187Z,4.30
2023-06-25T07:44:41.753Z,4.53
2023-06-25T07:47:12.520Z,3.95
2023-06-25T07:49:40.514Z,3.88
2023-06-25T07:52:09.287Z,4.05
2023-06-25T07:54:37.522Z,3.17
2023-06-25T07:57:08.179Z,3.78
2023-06-25T08:02:10.706Z,3.50
2023-06-25T08:04:39.090Z,3.92
2023-06-25T08:07:07.331Z,4.18
2023-06-25T08:09:35.385Z,3.20
2023-06-25T08:12:03.445Z,4.13
2023-06-25T08:14:32.881Z,3.53
2023-06-25T08:17:00.928Z,3.33
2023-06-25T08:19:28.969Z,3.63
2023-06-25T08:21:56.998Z,3.40
2023-06-25T08:24:25.020Z,4.10
2023-06-25T08:26:53.085Z,3.53
2023-06-25T08:29:21.609Z,3.70
2023-06-25T08:31:54.077Z,3.90
2023-06-25T08:34:22.366Z,3.63
2023-06-25T08:36:50.300Z,3.53
2023-06-25T08:39:18.279Z,4.05
2023-06-25T08:41:46.302Z,3.80
2023-06-25T08:44:15.457Z,3.78
2023-06-25T08:46:48.508Z,3.15
2023-06-25T08:49:18.388Z,3.55
2023-06-25T08:51:46.456Z,3.80
2023-06-25T08:54:14.503Z,3.75
2023-06-25T08:56:42.637Z,3.42
2023-06-25T08:59:10.621Z,3.35
2023-06-25T09:01:38.663Z,3.95
2023-06-25T09:04:06.911Z,2.92
2023-06-25T09:06:58.300Z,4.07
2023-06-25T09:09:29.718Z,3.67
2023-06-25T09:11:57.669Z,6.40
2023-06-25T09:14:25.697Z,3.67
2023-06-25T09:16:55.986Z,3.92
2023-06-25T09:19:24.482Z,4.40
2023-06-25T09:21:53.858Z,3.67
2023-06-25T09:24:23.592Z,3.38
2023-06-25T09:26:52.758Z,3.83
2023-06-25T09:29:22.678Z,4.22
2023-06-25T09:31:51.321Z,3.80
2023-06-25T09:34:20.548Z,3.67
2023-06-25T09:36:49.193Z,3.70
2023-06-25T09:39:18.524Z,3.08
2023-06-25T09:41:47.120Z,4.00
2023-06-25T09:44:16.734Z,3.35
2023-06-25T09:46:49.422Z,3.60
2023-06-25T09:49:20.820Z,4.20
2023-06-25T09:51:53.337Z,4.40
2023-06-25T09:54:25.555Z,3.90
2023-06-25T09:56:54.317Z,3.90
2023-06-25T09:59:24.795Z,4.15
2023-06-25T10:01:54.356Z,4.15
2023-06-25T10:04:22.906Z,4.35
2023-06-25T10:06:52.155Z,4.03
2023-06-25T10:09:20.384Z,3.80
2023-06-25T10:11:53.424Z,4.43
2023-06-25T10:14:21.452Z,4.03
2023-06-25T10:16:54.512Z,4.38
2023-06-25T10:19:23.393Z,3.88
2023-06-25T10:22:01.082Z,3.78
2023-06-25T10:24:39.710Z,3.92
2023-06-25T10:27:09.479Z,3.85
2023-06-25T10:29:44.041Z,4.03
2023-06-25T10:32:13.325Z,4.00
2023-06-25T10:34:42.134Z,3.95
2023-06-25T10:37:10.170Z,4.13
2023-06-25T10:39:39.286Z,3.85
2023-06-25T10:42:09.885Z,3.90
2023-06-25T10:44:37.854Z,3.83
2023-06-25T10:47:06.869Z,3.83
2023-06-25T10:49:35.909Z,4.30
2023-06-25T10:52:05.177Z,3.80
2023-06-25T10:54:34.115Z,4.85
2023-06-25T10:57:10.960Z,4.57
2023-06-25T10:59:39.150Z,4.25
2023-06-25T11:02:12.531Z,5.05
2023-06-25T11:04:40.596Z,3.65
2023-06-25T11:07:09.610Z,4.35
2023-06-25T11:09:37.700Z,3.90
2023-06-25T11:12:08.014Z,3.63
2023-06-25T11:14:37.554Z,3.83
2023-06-25T11:17:06.054Z,4.07
2023-06-25T11:19:34.067Z,3.70
2023-06-25T11:22:06.623Z,4.25
2023-06-25T11:24:36.211Z,3.92
2023-06-25T11:27:05.084Z,3.50
2023-06-25T11:29:39.623Z,3.60
2023-06-25T11:32:10.560Z,3.75
2023-06-25T11:34:45.421Z,3.88
2023-06-25T11:37:14.755Z,3.33
2023-06-25T11:39:47.195Z,3.92
2023-06-25T11:42:16.622Z,4.10
2023-06-25T11:44:47.321Z,4.13
2023-06-25T11:47:16.685Z,4.00
2023-06-25T11:49:54.946Z,3.73
2023-06-25T11:52:23.547Z,4.25
2023-06-25T11:54:51.652Z,3.67
2023-06-25T11:57:20.234Z,4.28
2023-06-25T11:59:50.151Z,4.13
2023-06-25T12:04:46.498Z,4.55
2023-06-25T12:08:29.289Z,4.18
2023-06-25T12:10:57.296Z,3.80
2023-06-25T12:13:25.302Z,3.75
2023-06-25T12:15:54.696Z,3.67
2023-06-25T12:18:23.400Z,5.05
2023-06-25T12:20:51.887Z,4.67
2023-06-25T12:23:20.099Z,4.30
2023-06-25T12:25:48.070Z,3.80
2023-06-25T12:28:16.264Z,3.80
2023-06-25T12:30:44.302Z,3.92
2023-06-25T12:33:13.735Z,4.28
2023-06-25T12:35:41.848Z,4.10
2023-06-25T12:38:09.842Z,4.28
2023-06-25T12:40:37.868Z,3.92
2023-06-25T12:43:05.902Z,3.55
2023-06-25T12:45:34.012Z,3.85
2023-06-25T12:48:02.249Z,3.97
2023-06-25T12:50:31.663Z,3.85
2023-06-25T12:52:59.802Z,3.75
2023-06-25T12:55:27.810Z,3.80
2023-06-25T12:57:55.852Z,4.30
2023-06-25T13:00:38.767Z,3.97
2023-06-25T13:03:11.788Z,3.58
2023-06-25T13:05:41.543Z,4.30
2023-06-25T13:08:09.545Z,3.78
2023-06-25T13:10:37.613Z,4.13
2023-06-25T13:13:07.231Z,4.07
2023-06-25T13:18:08.616Z,5.78
2023-06-25T13:20:36.885Z,4.05
2023-06-25T13:23:09.120Z,4.22
2023-06-25T13:25:42.636Z,3.83
2023-06-25T13:28:10.664Z,4.15
2023-06-25T13:30:38.751Z,3.90
2023-06-25T13:33:07.190Z,4.28
2023-06-25T13:35:35.469Z,4.78
2023-06-25T13:38:04.123Z,4.30
2023-06-25T13:40:33.633Z,3.72
2023-06-25T13:43:02.780Z,3.70
2023-06-25T13:45:31.723Z,4.20
2023-06-25T13:47:59.702Z,4.57
2023-06-25T13:50:27.810Z,4.72
2023-06-25T13:52:56.159Z,4.40
2023-06-25T13:55:24.245Z,4.05
2023-06-25T13:57:56.272Z,4.05
2023-06-25T14:00:24.504Z,4.45
2023-06-25T14:03:10.526Z,4.70
2023-06-25T14:05:40.859Z,4.55
2023-06-25T14:08:09.289Z,4.60
2023-06-25T14:10:37.469Z,3.90
2023-06-25T14:13:06.891Z,4.55
2023-06-25T14:15:37.100Z,4.15
2023-06-25T14:18:06.899Z,4.10
2023-06-25T14:20:34.993Z,4.65
2023-06-25T14:23:03.094Z,4.40
2023-06-25T14:25:56.923Z,4.20
2023-06-25T14:28:30.061Z,4.07
2023-06-25T14:31:00.814Z,4.18
2023-06-25T14:33:31.542Z,4.55
2023-06-25T14:36:04.454Z,4.00
2023-06-25T14:38:34.390Z,4.25
2023-06-25T14:41:06.117Z,3.92
2023-06-25T14:43:38.942Z,4.18
2023-06-25T14:46:07.205Z,4.43
2023-06-25T14:48:35.644Z,4.15
2023-06-25T14:51:04.365Z,4.47
2023-06-25T14:53:35.406Z,4.65
2023-06-25T14:56:03.709Z,4.60
2023-06-25T14:58:31.925Z,4.32
2023-06-25T15:01:02.073Z,5.50
2023-06-25T15:03:30.759Z,4.28
2023-06-25T15:06:10.109Z,4.55
2023-06-25T15:08:44.130Z,4.85
2023-06-25T15:11:12.784Z,4.63
2023-06-25T15:13:42.731Z,4.40
2023-06-25T15:18:42.764Z,4.78
2023-06-25T15:21:10.948Z,4.40
2023-06-25T15:23:39.070Z,4.43
2023-06-25T15:26:10.059Z,4.28
2023-06-25T15:28:38.251Z,4.40
2023-06-25T15:31:06.981Z,4.38
2023-06-25T15:33:36.697Z,4.65
2023-06-25T15:36:06.439Z,4.38
2023-06-25T15:38:34.824Z,4.45
2023-06-25T15:41:03.095Z,4.65
2023-06-25T15:43:56.214Z,4.65
2023-06-25T15:46:24.670Z,4.35
2023-06-25T15:48:55.142Z,4.13
2023-06-25T15:51:23.525Z,4.00
2023-06-25T15:53:51.630Z,3.97
2023-06-25T15:56:19.710Z,3.92
2023-06-25T15:58:50.239Z,4.00
2023-06-25T16:01:19.801Z,3.45
2023-06-25T16:03:48.025Z,3.60
2023-06-25T16:06:17.513Z,3.58
2023-06-25T16:08:45.523Z,4.10
2023-06-25T16:11:15.591Z,3.85
2023-06-25T16:13:43.739Z,4.40
2023-06-25T16:16:11.714Z,3.95
2023-06-25T16:18:39.792Z,4.60
2023-06-25T16:21:08.093Z,4.30
2023-06-25T16:23:37.444Z,3.83
2023-06-25T16:26:05.433Z,4.20
2023-06-25T16:28:33.510Z,4.22
2023-06-25T16:31:01.540Z,4.60
2023-06-25T16:33:29.617Z,4.60
2023-06-25T16:35:57.631Z,4.63
2023-06-25T16:38:25.739Z,4.97
2023-06-25T16:40:55.852Z,4.35
2023-06-25T16:43:24.104Z,4.85
2023-06-25T16:45:52.272Z,5.63
2023-06-25T16:48:20.287Z,5.18
2023-06-25T16:50:48.476Z,5.82
2023-06-25T16:53:16.489Z,5.20
2023-06-25T16:55:44.541Z,6.13
2023-06-25T16:58:14.423Z,5.70
2023-06-25T17:00:47.085Z,6.57
2023-06-25T17:03:15.233Z,5.88
2023-06-25T17:05:44.009Z,6.32
2023-06-25T17:08:12.247Z,6.13
2023-06-25T17:10:41.002Z,6.50
2023-06-25T17:13:09.431Z,6.30
2023-06-25T17:16:50.997Z,5.68
2023-06-25T17:19:21.354Z,5.70
2023-06-25T17:21:52.272Z,5.95
2023-06-25T17:24:20.475Z,6.20
2023-06-25T17:26:48.519Z,5.90
2023-06-25T17:29:16.681Z,5.88
2023-06-25T17:31:44.745Z,5.20
2023-06-25T17:34:12.748Z,5.80
2023-06-25T17:36:45.888Z,5.70
2023-06-25T17:39:14.614Z,5.75
2023-06-25T17:41:42.648Z,6.13
2023-06-25T17:44:10.717Z,5.35
2023-06-25T17:46:41.166Z,4.95
2023-06-25T17:49:09.258Z,4.95
2023-06-25T17:51:37.390Z,4.95
2023-06-25T17:54:06.840Z,5.82
2023-06-25T17:56:34.801Z,4.63
2023-06-25T17:59:02.840Z,4.93
2023-06-25T18:01:31.005Z,4.82
2023-06-25T18:03:59.155Z,5.40
2023-06-25T18:06:27.311Z,4.95
2023-06-25T18:08:55.335Z,5.30
2023-06-25T18:11:27.057Z,4.95
2023-06-25T18:13:56.531Z,4.72
2023-06-25T18:16:24.722Z,4.93
2023-06-25T18:18:52.765Z,4.78
2023-06-25T18:21:20.885Z,4.68
2023-06-25T18:23:48.904Z,5.28
2023-06-25T18:26:17.557Z,4.70
2023-06-25T18:28:47.018Z,4.88
2023-06-25T18:31:15.334Z,4.43
2023-06-25T18:33:43.486Z,5.25
2023-06-25T18:36:11.544Z,6.00
2023-06-25T18:38:39.498Z,6.03
2023-06-25T18:41:07.718Z,5.72
2023-06-25T18:43:36.040Z,4.40
2023-06-25T18:46:05.561Z,5.20
2023-06-25T18:48:34.229Z,8.40
2023-06-25T18:51:02.313Z,6.30
2023-06-25T18:53:30.404Z,5.60
2023-06-25T18:55:58.543Z,5.10
2023-06-25T18:58:26.678Z,6.72
2023-06-25T19:00:54.887Z,7.00
2023-06-25T19:03:24.740Z,6.00
2023-06-25T19:05:52.865Z,6.63
2023-06-25T19:08:20.921Z,5.80
2023-06-25T19:10:48.913Z,5.15
2023-06-25T19:13:17.061Z,4.57
2023-06-25T19:15:45.097Z,4.72
2023-06-25T19:18:13.710Z,4.85
2023-06-25T19:20:44.085Z,4.93
2023-06-25T19:25:43.892Z,5.05
2023-06-25T19:28:11.916Z,4.35
2023-06-25T19:31:05.436Z,4.10
2023-06-25T19:33:33.614Z,5.45
2023-06-25T19:36:28.827Z,4.95
2023-06-25T19:38:57.021Z,6.40
2023-06-25T19:41:25.435Z,5.35
2023-06-25T19:43:53.630Z,4.60
2023-06-25T19:46:21.611Z,5.10
2023-06-25T19:48:49.734Z,5.05
2023-06-25T19:51:17.921Z,4.40
2023-06-25T19:53:47.434Z,5.47
2023-06-25T19:56:15.532Z,5.03
2023-06-25T19:58:43.593Z,5.85
2023-06-25T20:01:11.761Z,10.90
2023-06-25T20:03:41.402Z,6.18
2023-06-25T20:06:09.959Z,4.55
2023-06-25T20:08:38.796Z,4.75
2023-06-25T20:11:08.176Z,6.85
2023-06-25T20:13:36.293Z,3.90
2023-06-25T20:16:04.366Z,3.95
2023-06-25T20:18:32.603Z,3.60
2023-06-25T20:21:00.775Z,3.20
2023-06-25T20:23:29.826Z,2.85
2023-06-25T20:25:58.088Z,3.05
2023-06-25T20:28:27.429Z,4.88
2023-06-25T20:30:55.410Z,3.10
2023-06-25T20:33:24.608Z,2.30
2023-06-25T20:35:52.571Z,1.63
2023-06-25T20:38:20.526Z,1.70
2023-06-25T20:40:48.585Z,1.10
2023-06-25T20:43:16.566Z,1.17
2023-06-25T20:45:45.973Z,1.27
2023-06-25T20:48:39.332Z,2.47
2023-06-25T20:51:07.468Z,1.20
2023-06-25T20:53:35.540Z,1.02
2023-06-25T20:56:03.570Z,0.90
2023-06-25T20:58:31.596Z,1.02
2023-06-25T21:01:01.014Z,0.88
2023-06-25T21:03:29.331Z,0.90
2023-06-25T21:06:00.093Z,1.00
2023-06-25T21:08:30.563Z,1.23
2023-06-25T21:10:58.735Z,0.90
2023-06-25T21:13:26.809Z,1.15
2023-06-25T21:15:54.892Z,0.90
2023-06-25T21:18:24.426Z,1.00
2023-06-25T21:20:52.680Z,0.93
2023-06-25T21:23:20.821Z,3.72
2023-06-25T21:25:49.011Z,1.30
2023-06-25T21:28:17.106Z,0.82
2023-06-25T21:30:45.188Z,1.00
2023-06-25T21:33:13.170Z,0.90
2023-06-25T21:35:42.724Z,1.23
2023-06-25T21:38:10.735Z,0.90
2023-06-25T21:40:39.053Z,9.02
2023-06-25T21:43:07.285Z,1.73
2023-06-25T21:45:35.305Z,0.90
2023-06-25T21:48:03.495Z,1.13
2023-06-25T21:50:31.520Z,1.10
2023-06-25T21:53:01.013Z,0.95
2023-06-25T21:55:29.118Z,1.08
2023-06-25T21:57:57.134Z,3.80
2023-06-25T22:00:25.189Z,1.10
2023-06-25T22:02:53.368Z,1.27
2023-06-25T22:05:21.788Z,1.08
2023-06-25T22:07:49.957Z,0.85
2023-06-25T22:10:19.490Z,1.00
2023-06-25T22:12:47.986Z,4.88
2023-06-25T22:15:17.384Z,1.00
2023-06-25T22:17:50.669Z,1.25
2023-06-25T22:20:18.909Z,1.30
2023-06-25T22:22:47.055Z,1.15
2023-06-25T22:25:15.288Z,1.00
2023-06-25T22:27:52.100Z,0.85
2023-06-25T22:30:21.412Z,1.05
2023-06-25T22:32:49.642Z,1.48
2023-06-25T22:35:18.355Z,1.15
2023-06-25T22:37:46.648Z,1.00
2023-06-25T22:40:14.816Z,1.27
2023-06-25T22:42:44.286Z,1.30
2023-06-25T22:45:12.510Z,1.02
2023-06-25T22:47:41.277Z,0.85
2023-06-25T22:50:11.398Z,1.05
2023-06-25T22:52:40.770Z,1.02
2023-06-25T22:55:09.830Z,1.50
2023-06-25T22:57:38.095Z,1.10
2023-06-25T23:00:11.866Z,0.90
2023-06-25T23:02:40.260Z,1.00
2023-06-25T23:05:09.266Z,1.73
2023-06-25T23:07:37.478Z,1.13
2023-06-25T23:10:05.745Z,1.10
2023-06-25T23:12:34.512Z,1.20
2023-06-25T23:15:02.954Z,1.30
2023-06-25T23:17:32.447Z,1.02
2023-06-25T23:20:00.692Z,1.50
2023-06-25T23:22:28.898Z,1.10
2023-06-25T23:25:01.123Z,1.15
2023-06-25T23:27:36.342Z,2.25
2023-06-25T23:30:05.518Z,1.40
2023-06-25T23:32:35.382Z,1.20
2023-06-25T23:35:03.913Z,1.30
2023-06-25T23:37:31.986Z,1.30
2023-06-25T23:40:00.195Z,1.40
2023-06-25T23:42:28.224Z,1.20
2023-06-25T23:44:56.418Z,1.33
2023-06-25T23:47:24.716Z,1.35
2023-06-25T23:49:54.216Z,1.52
2023-06-25T23:52:22.691Z,1.40
2023-06-25T23:54:50.871Z,1.42
2023-06-25T23:57:19.000Z,1.60
2023-06-25T23:59:47.161Z,1.67
